Time;durP1;ratioP1;P1;durP2;ratioP2;P2;SDS_P1;SDS_P2;PMS_P1;PMS_P2;Temp;Humidity;BMP_temperature;BMP_pressure;BME280_temperature;BME280_humidity;BME280_pressure;Samples;Min_cycle;Max_cycle;Signal;HPM_P1;HPM_P2
2021/12/20 00:01:51;;;;;;;9.08;3.70;;;;;;;0.35;84.43;100186.38;2026367;86;21082;-71
2021/12/20 00:04:53;;;;;;;9.88;4.28;;;;;;;0.36;84.41;100189.83;2026546;86;21090;-72
2021/12/20 00:07:55;;;;;;;12.35;4.00;;;;;;;0.34;84.34;100187.33;2029186;86;21217;-71
2021/12/20 00:10:56;;;;;;;9.68;3.50;;;;;;;0.32;84.26;100174.84;2029838;86;21017;-71
2021/12/20 00:13:58;;;;;;;9.68;4.00;;;;;;;0.28;84.22;100189.01;2026018;86;21114;-71
2021/12/20 00:16:59;;;;;;;6.28;3.20;;;;;;;0.26;84.18;100191.38;2022770;86;21008;-71
2021/12/20 00:20:01;;;;;;;10.70;4.10;;;;;;;0.21;84.16;100196.87;2027471;86;21561;-71
2021/12/20 00:23:04;;;;;;;11.53;3.95;;;;;;;0.21;84.19;100200.32;2021418;86;21530;-71
2021/12/20 00:26:06;;;;;;;5.03;2.80;;;;;;;0.20;84.17;100200.44;2023854;86;21046;-71
2021/12/20 00:29:08;;;;;;;11.90;4.00;;;;;;;0.19;84.15;100205.27;2031835;86;21075;-71
2021/12/20 00:32:09;;;;;;;9.25;3.85;;;;;;;0.20;84.18;100197.35;2032087;86;21069;-72
2021/12/20 00:35:13;;;;;;;12.45;4.22;;;;;;;0.18;84.13;100195.30;2026496;86;21054;-71
2021/12/20 00:41:36;;;;;;;11.18;4.05;;;;;;;0.14;84.02;100196.45;2027880;86;21573;-71
2021/12/20 00:44:37;;;;;;;8.00;3.35;;;;;;;0.14;84.02;100209.94;2024057;86;21561;-71
2021/12/20 00:47:41;;;;;;;11.22;4.75;;;;;;;0.13;84.00;100208.27;2027714;86;21460;-71
2021/12/20 00:50:43;;;;;;;8.35;3.58;;;;;;;0.09;83.88;100212.86;2028448;86;21069;-71
2021/12/20 00:53:45;;;;;;;12.90;3.33;;;;;;;0.07;83.93;100200.84;2022270;86;21020;-71
2021/12/20 00:56:46;;;;;;;5.70;2.72;;;;;;;0.03;84.00;100200.21;2027971;86;21170;-71
2021/12/20 00:59:48;;;;;;;5.45;3.20;;;;;;;0.01;83.93;100212.50;2020647;86;21003;-71
2021/12/20 01:02:51;;;;;;;7.95;3.47;;;;;;;-0.01;83.87;100224.33;2022084;86;21111;-71
2021/12/20 01:05:53;;;;;;;7.47;3.10;;;;;;;-0.03;83.88;100228.83;2024499;86;21009;-71
2021/12/20 01:08:54;;;;;;;8.25;3.25;;;;;;;-0.02;83.86;100207.02;2029235;86;21148;-71
2021/12/20 01:12:02;;;;;;;7.05;4.22;;;;;;;-0.04;83.80;100210.17;2024306;86;21579;-71
2021/12/20 01:15:01;;;;;;;8.15;3.52;;;;;;;-0.05;83.86;100216.34;2024235;86;21089;-71
2021/12/20 01:18:05;;;;;;;10.28;3.30;;;;;;;-0.06;83.88;100219.89;2023854;86;21692;-71
2021/12/20 01:21:08;;;;;;;5.62;2.80;;;;;;;-0.08;83.89;100211.79;2021839;86;21317;-71
2021/12/20 01:24:10;;;;;;;6.78;3.05;;;;;;;-0.07;83.99;100221.28;2027549;86;21066;-71
2021/12/20 01:27:11;;;;;;;7.50;2.98;;;;;;;-0.06;84.02;100231.62;2019679;86;21072;-71
2021/12/20 01:30:15;;;;;;;9.00;3.40;;;;;;;-0.05;84.08;100238.51;2019323;86;21125;-71
2021/12/20 01:33:16;;;;;;;6.78;3.20;;;;;;;0.02;84.17;100248.55;2028390;86;21604;-71
2021/12/20 01:36:19;;;;;;;7.17;3.33;;;;;;;0.05;84.22;100248.36;2023277;86;21075;-71
2021/12/20 01:39:21;;;;;;;8.33;2.90;;;;;;;0.10;84.24;100247.61;2020804;86;21101;-70
2021/12/20 01:42:22;;;;;;;12.35;3.77;;;;;;;0.13;84.18;100240.89;2025281;86;22717;-71
2021/12/20 01:45:27;;;;;;;5.92;2.70;;;;;;;0.17;84.21;100248.44;2026912;86;21541;-71
2021/12/20 01:48:30;;;;;;;6.08;2.80;;;;;;;0.22;84.23;100250.27;2024575;86;21110;-71
2021/12/20 01:54:40;;;;;;;9.25;4.10;;;;;;;0.30;84.09;100244.56;2022005;86;21660;-71
2021/12/20 01:57:42;;;;;;;8.48;3.47;;;;;;;0.31;83.95;100246.27;2024273;86;21102;-71
2021/12/20 02:01:18;;;;;;;9.55;3.62;;;;;;;0.32;83.98;100233.56;2030262;86;21110;-71
2021/12/20 02:04:08;;;;;;;9.45;4.20;;;;;;;0.33;83.95;100250.89;2023734;86;21093;-70
2021/12/20 02:07:09;;;;;;;9.13;4.45;;;;;;;0.36;84.00;100255.08;2025240;86;21066;-71
2021/12/20 02:10:12;;;;;;;11.68;4.55;;;;;;;0.36;83.93;100256.39;2029588;86;21136;-71
2021/12/20 02:13:15;;;;;;;10.60;5.33;;;;;;;0.37;83.88;100253.69;2025184;86;21610;-71
2021/12/20 02:16:18;;;;;;;13.15;4.95;;;;;;;0.38;83.92;100251.91;2030583;86;21055;-71
2021/12/20 02:19:20;;;;;;;11.53;4.58;;;;;;;0.37;83.83;100262.83;2023365;86;21050;-71
2021/12/20 02:22:21;;;;;;;13.30;4.33;;;;;;;0.37;83.77;100259.39;2024104;86;21089;-71
2021/12/20 02:25:25;;;;;;;9.88;4.62;;;;;;;0.37;83.79;100258.08;2027990;86;21087;-71
2021/12/20 02:28:35;;;;;;;6.30;3.85;;;;;;;0.36;83.80;100255.91;2029805;86;21042;-71
2021/12/20 02:38:18;;;;;;;9.87;4.40;;;;;;;0.32;83.77;100257.06;2025832;86;21011;-72
2021/12/20 02:41:26;;;;;;;8.68;3.50;;;;;;;0.32;83.87;100251.84;2024025;86;21098;-72
2021/12/20 02:44:28;;;;;;;7.33;4.10;;;;;;;0.31;83.88;100254.09;2023007;86;21114;-72
2021/12/20 02:47:30;;;;;;;7.22;4.40;;;;;;;0.31;83.80;100256.70;2025434;86;21031;-72
2021/12/20 02:50:32;;;;;;;9.30;4.40;;;;;;;0.30;83.82;100247.17;2027323;86;21142;-72
2021/12/20 02:53:33;;;;;;;7.00;4.10;;;;;;;0.29;83.79;100247.29;2027867;86;21020;-72
2021/12/20 02:56:35;;;;;;;6.78;3.42;;;;;;;0.27;83.75;100241.33;2030437;86;21038;-72
2021/12/20 02:59:37;;;;;;;7.97;3.58;;;;;;;0.26;83.75;100249.63;2023619;86;21740;-72
2021/12/20 03:02:39;;;;;;;6.78;3.85;;;;;;;0.25;83.75;100240.58;2025487;86;21130;-72
2021/12/20 03:05:41;;;;;;;10.18;3.70;;;;;;;0.26;83.74;100244.41;2030404;86;21110;-72
2021/12/20 03:08:45;;;;;;;4.83;3.47;;;;;;;0.26;83.67;100241.80;2025303;86;21069;-72
2021/12/20 03:11:51;;;;;;;8.33;3.55;;;;;;;0.22;83.54;100233.30;2026855;86;21097;-72
2021/12/20 03:14:56;;;;;;;5.53;3.67;;;;;;;0.19;83.55;100230.06;2026391;86;21109;-72
2021/12/20 03:17:56;;;;;;;4.37;2.95;;;;;;;0.17;83.54;100246.27;2028442;86;21081;-72
2021/12/20 03:20:57;;;;;;;6.67;3.33;;;;;;;0.15;83.57;100245.55;2029977;86;21082;-72
2021/12/20 03:23:59;;;;;;;9.80;3.58;;;;;;;0.15;83.60;100235.95;2023757;86;21085;-72
2021/12/20 03:27:01;;;;;;;6.05;3.30;;;;;;;0.15;83.48;100243.78;2027777;86;21126;-72
2021/12/20 03:30:06;;;;;;;6.22;3.05;;;;;;;0.15;83.58;100241.64;2023915;86;21010;-71
2021/12/20 03:33:07;;;;;;;5.62;3.22;;;;;;;0.17;83.57;100251.49;2023381;85;21104;-71
2021/12/20 03:36:09;;;;;;;7.70;2.90;;;;;;;0.16;83.61;100261.57;2029254;86;21102;-71
2021/12/20 03:39:11;;;;;;;5.65;2.87;;;;;;;0.16;83.68;100248.52;2028691;86;21004;-71
2021/12/20 03:42:12;;;;;;;3.92;2.60;;;;;;;0.18;83.58;100244.88;2027494;86;21146;-71
2021/12/20 03:45:15;;;;;;;3.77;3.00;;;;;;;0.19;83.44;100252.24;2023641;86;21089;-71
2021/12/20 03:48:17;;;;;;;3.98;2.83;;;;;;;0.18;83.37;100255.80;2022446;86;20996;-71
2021/12/20 03:51:19;;;;;;;4.12;2.90;;;;;;;0.19;83.39;100261.37;2017306;86;21633;-71
2021/12/20 03:54:21;;;;;;;4.87;2.60;;;;;;;0.20;83.36;100269.12;2027578;86;21640;-71
2021/12/20 03:57:22;;;;;;;5.75;2.65;;;;;;;0.19;83.23;100275.73;2028019;86;21137;-71
2021/12/20 04:00:26;;;;;;;5.90;2.58;;;;;;;0.20;83.29;100269.59;2025558;86;21008;-71
2021/12/20 04:03:30;;;;;;;6.15;2.58;;;;;;;0.21;83.34;100268.65;2026510;86;21085;-71
2021/12/20 04:06:33;;;;;;;5.53;2.80;;;;;;;0.22;83.21;100270.31;2026392;86;21122;-71
2021/12/20 04:09:34;;;;;;;7.08;2.77;;;;;;;0.22;83.14;100261.18;2026161;86;21062;-71
2021/12/20 04:12:35;;;;;;;5.00;2.83;;;;;;;0.21;83.02;100272.56;2022890;86;21070;-71
2021/12/20 04:15:38;;;;;;;5.83;2.52;;;;;;;0.20;83.09;100257.84;2032317;86;21081;-71
2021/12/20 04:18:39;;;;;;;5.37;2.85;;;;;;;0.18;83.08;100265.77;2022802;86;21408;-71
2021/12/20 04:21:41;;;;;;;6.17;2.65;;;;;;;0.18;83.04;100261.84;2027212;86;22297;-71
2021/12/20 04:24:43;;;;;;;7.28;3.08;;;;;;;0.17;82.94;100268.02;2031545;86;21027;-71
2021/12/20 04:27:44;;;;;;;5.65;2.90;;;;;;;0.16;82.92;100273.31;2019241;86;21829;-71
2021/12/20 04:30:46;;;;;;;7.20;2.50;;;;;;;0.14;82.95;100273.42;2026518;86;21145;-71
2021/12/20 04:33:47;;;;;;;4.10;2.15;;;;;;;0.15;82.96;100282.09;2025998;86;21074;-71
2021/12/20 04:36:49;;;;;;;7.97;2.72;;;;;;;0.15;83.02;100277.70;2031491;86;21106;-71
2021/12/20 04:39:50;;;;;;;5.28;2.47;;;;;;;0.16;83.00;100293.72;2013972;86;21022;-71
2021/12/20 04:42:59;;;;;;;4.42;2.20;;;;;;;0.18;82.90;100298.86;2023129;86;21116;-71
2021/12/20 04:46:00;;;;;;;6.45;2.20;;;;;;;0.16;82.78;100295.02;2032259;86;21634;-73
2021/12/20 04:49:03;;;;;;;3.77;2.67;;;;;;;0.16;82.89;100304.63;2029676;86;21522;-73
2021/12/20 04:52:04;;;;;;;5.33;2.15;;;;;;;0.15;82.69;100314.70;2030240;86;21102;-72
2021/12/20 04:55:07;;;;;;;5.55;2.05;;;;;;;0.16;82.74;100311.98;2022161;86;21070;-73
2021/12/20 04:58:09;;;;;;;4.33;2.02;;;;;;;0.14;82.65;100304.73;2027276;86;21390;-72
2021/12/20 05:01:11;;;;;;;3.83;2.12;;;;;;;0.14;82.75;100307.35;2025231;86;21055;-72
2021/12/20 05:04:12;;;;;;;4.60;2.00;;;;;;;0.15;82.72;100301.66;2024067;86;22234;-71
2021/12/20 05:07:14;;;;;;;5.80;1.80;;;;;;;0.14;82.56;100298.66;2025772;86;21034;-71
2021/12/20 05:10:29;;;;;;;3.45;1.80;;;;;;;0.13;82.55;100308.73;2026114;86;21576;-71
2021/12/20 05:13:29;;;;;;;4.33;2.25;;;;;;;0.13;82.66;100323.92;2034000;86;21091;-71
2021/12/20 05:16:31;;;;;;;5.30;2.55;;;;;;;0.13;82.70;100325.22;2022802;86;21022;-71
2021/12/20 05:19:33;;;;;;;4.40;2.60;;;;;;;0.14;82.72;100326.92;2015227;86;21032;-71
2021/12/20 05:22:36;;;;;;;3.37;2.20;;;;;;;0.15;82.64;100326.45;2029350;86;21070;-72
2021/12/20 05:25:39;;;;;;;8.88;2.40;;;;;;;0.12;82.62;100330.09;2025500;86;21131;-72
2021/12/20 05:28:41;;;;;;;3.52;2.00;;;;;;;0.13;82.64;100333.05;2029007;86;21003;-74
2021/12/20 05:31:43;;;;;;;5.95;1.92;;;;;;;0.15;82.65;100334.28;2025618;86;21336;-72
2021/12/20 05:34:45;;;;;;;3.22;1.87;;;;;;;0.15;82.53;100336.89;2028977;86;21114;-73
2021/12/20 05:37:48;;;;;;;4.22;2.05;;;;;;;0.16;82.61;100347.69;2027108;86;21441;-73
2021/12/20 05:40:50;;;;;;;3.00;1.95;;;;;;;0.14;82.58;100353.02;2027105;86;21557;-73
2021/12/20 05:43:51;;;;;;;6.78;2.30;;;;;;;0.13;82.43;100349.19;2027754;86;21058;-72
2021/12/20 05:46:53;;;;;;;2.87;1.60;;;;;;;0.13;82.58;100353.93;2028944;86;21596;-76
2021/12/20 05:49:54;;;;;;;4.37;2.12;;;;;;;0.13;82.33;100353.93;2021477;86;21586;-73
2021/12/20 05:52:57;;;;;;;8.23;1.70;;;;;;;0.13;82.44;100360.92;2030994;86;21312;-72
2021/12/20 05:55:58;;;;;;;4.58;1.95;;;;;;;0.14;82.48;100363.89;2029231;86;21051;-76
2021/12/20 05:59:00;;;;;;;4.50;2.37;;;;;;;0.13;82.21;100370.89;2029458;86;21093;-74
2021/12/20 06:02:03;;;;;;;5.28;2.22;;;;;;;0.13;82.36;100366.98;2030283;86;21116;-73
2021/12/20 06:05:06;;;;;;;2.35;1.55;;;;;;;0.14;82.31;100374.33;2005600;86;21120;-74
2021/12/20 06:08:09;;;;;;;5.53;2.17;;;;;;;0.14;82.33;100371.28;2017488;86;21080;-74
2021/12/20 06:11:11;;;;;;;3.12;1.70;;;;;;;0.16;82.09;100376.39;2027116;86;21637;-73
2021/12/20 06:14:13;;;;;;;4.90;2.00;;;;;;;0.16;82.20;100369.88;1993675;86;21053;-74
2021/12/20 06:17:15;;;;;;;5.87;2.20;;;;;;;0.15;82.04;100377.34;2022856;86;21090;-74
2021/12/20 06:20:16;;;;;;;4.92;2.33;;;;;;;0.16;82.20;100380.31;2031962;86;21067;-74
2021/12/20 06:23:20;;;;;;;4.67;2.00;;;;;;;0.14;82.10;100387.38;2026646;86;21066;-74
2021/12/20 06:26:23;;;;;;;4.97;2.37;;;;;;;0.14;82.12;100387.38;2028843;86;21542;-75
2021/12/20 06:29:24;;;;;;;9.45;2.47;;;;;;;0.14;82.15;100384.77;2028647;86;21081;-74
2021/12/20 06:32:26;;;;;;;3.90;2.08;;;;;;;0.14;81.93;100389.55;2028116;86;21051;-74
2021/12/20 06:35:27;;;;;;;5.65;2.80;;;;;;;0.14;81.99;100393.91;2029196;86;21114;-74
2021/12/20 06:38:29;;;;;;;3.92;2.33;;;;;;;0.12;81.95;100403.63;2027558;86;21104;-74
2021/12/20 06:41:30;;;;;;;7.40;2.30;;;;;;;0.15;82.07;100407.34;2017919;86;21049;-74
2021/12/20 06:44:32;;;;;;;5.70;2.40;;;;;;;0.13;82.03;100417.03;2027430;86;20994;-75
2021/12/20 06:47:36;;;;;;;7.47;2.17;;;;;;;0.13;82.02;100424.86;2020988;86;21105;-74
2021/12/20 06:50:38;;;;;;;4.70;2.10;;;;;;;0.12;81.95;100427.11;2027829;86;21664;-74
2021/12/20 06:53:39;;;;;;;6.05;2.35;;;;;;;0.11;81.91;100414.97;2029107;86;21028;-72
2021/12/20 06:56:41;;;;;;;5.75;2.70;;;;;;;0.11;81.94;100424.10;2023546;86;21031;-72
2021/12/20 06:59:43;;;;;;;5.03;2.17;;;;;;;0.36;84.44;100438.65;2019131;86;21082;-75
2021/12/20 07:02:45;;;;;;;5.53;2.15;;;;;;;0.57;82.28;100434.37;2027739;86;21030;-75
2021/12/20 07:05:47;;;;;;;6.35;2.15;;;;;;;0.46;81.49;100428.50;2029288;86;21034;-75
2021/12/20 07:08:48;;;;;;;2.35;1.60;;;;;;;0.38;81.70;100430.27;2030339;86;21145;-75
2021/12/20 07:11:50;;;;;;;3.52;2.00;;;;;;;0.31;81.39;100430.28;2027263;86;21011;-75
2021/12/20 07:14:51;;;;;;;3.40;1.90;;;;;;;0.26;81.53;100441.94;2025629;86;21055;-75
2021/12/20 07:17:53;;;;;;;4.87;1.60;;;;;;;0.22;81.66;100434.27;2023501;86;21035;-74
2021/12/20 07:20:54;;;;;;;4.45;2.27;;;;;;;0.22;81.67;100443.87;2029403;86;21553;-74
2021/12/20 07:23:56;;;;;;;3.75;2.22;;;;;;;0.22;81.69;100438.65;2030690;86;21045;-75
2021/12/20 07:26:58;;;;;;;6.33;2.25;;;;;;;0.22;81.73;100446.48;2024204;86;21018;-74
2021/12/20 07:30:00;;;;;;;4.72;2.40;;;;;;;0.21;81.59;100450.03;2030655;86;21521;-74
2021/12/20 07:33:05;;;;;;;4.92;2.40;;;;;;;0.22;81.78;100454.31;2031767;86;21074;-74
2021/12/20 07:36:06;;;;;;;3.55;2.17;;;;;;;0.23;81.71;100441.66;2025331;86;21071;-73
2021/12/20 07:39:08;;;;;;;4.80;2.47;;;;;;;0.22;81.64;100451.23;2021707;86;21042;-73
2021/12/20 07:42:09;;;;;;;5.15;2.10;;;;;;;0.24;81.72;100455.06;2022772;86;21065;-73
2021/12/20 07:45:11;;;;;;;2.90;2.30;;;;;;;0.23;81.68;100444.27;2029174;86;21105;-74
2021/12/20 07:48:15;;;;;;;5.37;2.17;;;;;;;0.24;81.53;100446.40;2031064;86;21580;-74
2021/12/20 07:51:18;;;;;;;4.72;2.12;;;;;;;0.25;81.58;100445.45;2026251;86;21632;-74
2021/12/20 07:54:20;;;;;;;6.57;2.23;;;;;;;0.24;81.51;100428.97;2024746;86;21020;-73
2021/12/20 07:57:22;;;;;;;6.20;2.20;;;;;;;0.22;81.51;100441.27;2032325;86;21066;-74
2021/12/20 08:00:24;;;;;;;3.58;2.22;;;;;;;0.24;81.64;100455.53;2029420;86;21047;-74
2021/12/20 08:03:26;;;;;;;6.67;2.67;;;;;;;0.26;81.68;100453.68;2027878;86;21050;-74
2021/12/20 08:06:27;;;;;;;12.85;5.00;;;;;;;0.27;81.63;100447.05;2028836;86;20995;-74
2021/12/20 08:09:29;;;;;;;6.95;3.30;;;;;;;0.31;81.83;100461.61;2024080;86;21589;-75
2021/12/20 08:12:30;;;;;;;6.08;2.40;;;;;;;0.35;81.78;100461.78;2025948;86;21138;-73
2021/12/20 08:15:32;;;;;;;5.58;2.20;;;;;;;0.36;81.80;100464.75;2026651;86;21061;-73
2021/12/20 08:18:34;;;;;;;6.28;2.92;;;;;;;0.38;81.75;100469.42;2025744;86;21121;-74
2021/12/20 08:21:35;;;;;;;8.10;2.70;;;;;;;0.41;81.80;100466.63;2021165;86;21165;-74
2021/12/20 08:24:37;;;;;;;4.67;2.50;;;;;;;0.44;81.69;100473.43;2020663;86;21057;-74
2021/12/20 08:27:39;;;;;;;4.95;2.62;;;;;;;0.44;81.76;100476.05;2023104;86;21766;-74
2021/12/20 08:30:41;;;;;;;6.40;2.87;;;;;;;0.43;81.70;100480.43;2027957;86;22346;-75
2021/12/20 08:33:43;;;;;;;9.15;2.62;;;;;;;0.42;81.69;100472.23;2022037;86;22192;-74
2021/12/20 08:36:45;;;;;;;7.62;2.33;;;;;;;0.41;81.68;100478.38;2022629;86;21112;-74
2021/12/20 08:39:47;;;;;;;6.47;2.80;;;;;;;0.42;81.72;100475.29;2028162;86;21070;-74
2021/12/20 08:42:48;;;;;;;7.20;3.95;;;;;;;0.41;81.66;100484.90;2025088;86;21047;-74
2021/12/20 08:45:50;;;;;;;6.05;3.22;;;;;;;0.38;81.71;100485.09;2027068;86;21011;-74
2021/12/20 08:48:52;;;;;;;14.87;3.30;;;;;;;0.36;81.74;100481.72;2024433;86;21059;-73
2021/12/20 08:51:56;;;;;;;4.53;2.50;;;;;;;0.34;81.69;100486.22;2012066;86;21043;-74
2021/12/20 08:54:57;;;;;;;5.67;2.75;;;;;;;0.35;81.77;100497.02;2031520;86;21010;-75
2021/12/20 08:57:59;;;;;;;5.33;2.47;;;;;;;0.36;81.74;100494.77;2027230;86;21037;-74
2021/12/20 09:01:01;;;;;;;5.87;2.83;;;;;;;0.37;81.85;100483.42;2032957;86;21046;-73
2021/12/20 09:04:06;;;;;;;10.48;3.40;;;;;;;0.38;81.85;100486.39;2025822;86;21062;-74
2021/12/20 09:07:14;;;;;;;6.70;2.80;;;;;;;0.38;81.91;100490.31;2029230;86;21117;-74
2021/12/20 09:10:15;;;;;;;7.65;3.35;;;;;;;0.37;81.85;100492.56;2031400;86;21063;-73
2021/12/20 09:13:16;;;;;;;6.22;2.87;;;;;;;0.38;81.94;100494.22;2025246;86;21090;-73
2021/12/20 09:16:18;;;;;;;7.75;3.22;;;;;;;0.38;81.92;100495.53;2030132;86;21011;-74
2021/12/20 09:19:20;;;;;;;5.55;2.92;;;;;;;0.39;81.94;100501.11;2031628;86;21061;-74
2021/12/20 09:22:27;;;;;;;7.42;3.20;;;;;;;0.41;81.88;100501.87;2026015;86;22241;-74
2021/12/20 09:25:27;;;;;;;6.08;3.25;;;;;;;0.43;82.01;100506.54;2026884;86;21063;-74
2021/12/20 09:28:29;;;;;;;5.60;2.90;;;;;;;0.44;81.96;100506.91;2029052;86;21108;-73
2021/12/20 09:31:30;;;;;;;10.23;3.00;;;;;;;0.41;81.80;100508.87;2026192;86;21074;-73
2021/12/20 09:34:32;;;;;;;7.28;2.77;;;;;;;0.43;81.89;100518.29;2026822;86;21092;-73
2021/12/20 09:37:33;;;;;;;6.35;3.10;;;;;;;0.47;81.91;100516.80;2023654;86;21526;-73
2021/12/20 09:40:40;;;;;;;5.33;3.50;;;;;;;0.51;81.87;100516.97;2027710;86;21090;-73
2021/12/20 09:43:48;;;;;;;6.28;2.50;;;;;;;0.51;81.93;100511.31;2019082;86;21062;-74
2021/12/20 09:46:50;;;;;;;9.73;3.22;;;;;;;0.50;81.74;100515.30;2030270;86;21491;-73
2021/12/20 09:49:52;;;;;;;7.50;2.95;;;;;;;0.49;81.82;100513.64;2026828;86;21126;-75
2021/12/20 09:52:54;;;;;;;8.33;2.50;;;;;;;0.50;81.95;100513.52;2025010;86;21592;-73
2021/12/20 09:55:59;;;;;;;7.25;3.12;;;;;;;0.53;81.94;100521.17;2020854;86;21122;-71
2021/12/20 09:59:01;;;;;;;7.75;2.83;;;;;;;0.55;81.83;100514.56;2033562;86;22371;-74
2021/12/20 10:02:08;;;;;;;5.35;2.60;;;;;;;0.53;81.73;100517.25;2026786;86;21045;-73
2021/12/20 10:05:12;;;;;;;3.90;2.25;;;;;;;0.54;81.72;100525.95;2023471;86;21077;-73
2021/12/20 10:08:19;;;;;;;6.80;3.10;;;;;;;0.52;81.80;100515.59;2030000;86;21026;-73
2021/12/20 10:11:25;;;;;;;7.47;3.02;;;;;;;0.53;81.91;100520.34;2019866;86;21122;-72
2021/12/20 10:14:27;;;;;;;5.43;3.03;;;;;;;0.54;81.72;100505.90;2026638;86;21049;-72
2021/12/20 10:17:55;;;;;;;6.70;2.92;;;;;;;0.55;81.76;100515.40;2033408;86;21101;-74
2021/12/20 10:21:00;;;;;;;7.20;3.47;;;;;;;0.58;81.85;100519.13;2027328;86;21078;-74
2021/12/20 10:24:01;;;;;;;7.12;2.92;;;;;;;0.61;81.80;100519.41;2030366;86;21073;-74
2021/12/20 10:27:03;;;;;;;7.75;3.52;;;;;;;0.62;81.88;100512.80;2027874;86;21102;-74
2021/12/20 10:30:33;;;;;;;4.10;2.80;;;;;;;0.71;82.00;100509.27;2006575;86;21849;-75
2021/12/20 10:33:36;;;;;;;5.12;3.15;;;;;;;0.77;81.76;100504.48;2020757;86;21091;-73
2021/12/20 10:36:46;;;;;;;9.90;3.70;;;;;;;0.82;81.69;100507.66;2026429;86;21093;-74
2021/12/20 10:39:48;;;;;;;7.70;3.22;;;;;;;0.82;81.53;100508.13;2012338;86;21086;-73
2021/12/20 10:42:52;;;;;;;5.60;3.35;;;;;;;0.82;81.63;100510.27;2014346;86;21088;-73
2021/12/20 10:45:56;;;;;;;6.62;3.42;;;;;;;0.81;81.47;100512.49;2024433;86;21090;-74
2021/12/20 10:49:08;;;;;;;6.90;3.00;;;;;;;0.81;81.53;100507.73;2021215;86;21062;-74
2021/12/20 10:52:10;;;;;;;12.68;3.55;;;;;;;0.80;81.44;100509.52;2007197;86;21122;-74
2021/12/20 10:55:12;;;;;;;3.10;2.80;;;;;;;0.80;81.36;100501.68;2032763;86;20998;-74
2021/12/20 10:58:33;;;;;;;9.55;3.42;;;;;;;0.79;81.32;100510.91;2025719;86;21094;-73
2021/12/20 11:04:52;;;;;;;;;;;;;;;0.73;81.35;100513.90;2032108;86;21157;-73
2021/12/20 11:11:12;;;;;;;6.28;2.95;;;;;;;0.79;81.48;100510.47;1975015;86;21042;-73
2021/12/20 11:14:15;;;;;;;6.42;2.98;;;;;;;0.82;81.22;100514.19;2026935;86;21072;-72
2021/12/20 11:17:20;;;;;;;10.70;3.20;;;;;;;0.84;81.47;100514.91;2030348;86;21094;-73
2021/12/20 11:20:23;;;;;;;5.03;2.87;;;;;;;0.89;81.44;100512.03;2030233;86;21022;-73
2021/12/20 11:23:27;;;;;;;9.83;2.95;;;;;;;0.88;81.39;100519.03;2027862;86;20971;-73
2021/12/20 11:26:29;;;;;;;5.78;2.98;;;;;;;0.91;81.23;100517.17;2024088;86;21018;-73
2021/12/20 11:29:32;;;;;;;8.25;3.25;;;;;;;0.91;81.10;100522.40;2036208;86;21611;-73
2021/12/20 11:32:33;;;;;;;7.75;3.22;;;;;;;0.93;81.22;100517.89;2028703;86;21144;-73
2021/12/20 11:35:35;;;;;;;5.58;3.35;;;;;;;0.94;81.14;100528.27;2038381;86;21111;-73
2021/12/20 11:38:37;;;;;;;5.55;3.22;;;;;;;0.92;81.16;100529.29;2023168;86;21089;-73
2021/12/20 11:41:39;;;;;;;9.53;4.22;;;;;;;0.90;81.03;100520.23;2021041;86;22290;-73
2021/12/20 11:44:45;;;;;;;6.83;4.40;;;;;;;0.84;80.98;100531.89;2024515;86;21022;-73
2021/12/20 11:48:04;;;;;;;7.50;4.22;;;;;;;0.87;81.29;100533.05;2028529;86;21521;-73
2021/12/20 11:51:09;;;;;;;8.03;4.05;;;;;;;0.87;81.23;100533.05;2025044;86;21629;-73
2021/12/20 11:54:33;;;;;;;7.15;3.98;;;;;;;0.83;81.08;100518.47;2024304;86;21085;-73
2021/12/20 11:57:40;;;;;;;6.83;3.75;;;;;;;0.84;81.22;100516.69;2028868;86;21631;-73
2021/12/20 12:00:52;;;;;;;6.95;4.25;;;;;;;0.86;81.50;100518.28;2018885;86;21052;-73
2021/12/20 12:03:58;;;;;;;9.18;3.37;;;;;;;0.92;81.54;100526.67;2024495;86;21069;-72
2021/12/20 12:07:23;;;;;;;7.80;3.85;;;;;;;0.98;81.39;100518.45;2022782;86;21073;-73
2021/12/20 12:10:30;;;;;;;7.10;3.50;;;;;;;1.01;81.24;100524.79;2022980;86;21518;-73
2021/12/20 12:13:51;;;;;;;6.15;3.92;;;;;;;1.01;81.16;100522.17;2026905;86;21039;-73
2021/12/20 12:17:00;;;;;;;;;;;;;;;1.01;81.22;100523.02;2030462;86;21624;-73
2021/12/20 12:20:04;;;;;;;7.92;3.90;;;;;;;1.00;81.07;100530.48;2025795;86;20225;-75
2021/12/20 12:23:24;;;;;;;9.78;4.00;;;;;;;1.04;81.20;100515.01;2025959;86;21026;-73
2021/12/20 12:26:34;;;;;;;12.53;4.33;;;;;;;1.06;81.10;100521.42;2020409;86;21513;-73
2021/12/20 12:29:37;;;;;;;9.20;4.85;;;;;;;1.05;81.00;100519.77;2011175;86;28405;-73
2021/12/20 12:32:56;;;;;;;7.37;3.90;;;;;;;1.12;81.10;100522.34;2028839;86;21100;-73
2021/12/20 12:36:02;;;;;;;8.73;3.60;;;;;;;1.14;80.75;100520.48;2026738;86;21110;-73
2021/12/20 12:39:12;;;;;;;12.45;3.92;;;;;;;1.11;80.82;100528.05;2033140;86;21120;-73
2021/12/20 12:42:14;;;;;;;7.42;3.80;;;;;;;1.08;80.67;100516.95;2027126;86;21023;-74
2021/12/20 12:45:37;;;;;;;7.40;4.20;;;;;;;1.07;80.64;100522.66;2027460;86;21066;-73
2021/12/20 12:48:47;;;;;;;7.72;4.12;;;;;;;1.03;80.85;100528.16;2033197;86;21066;-72
2021/12/20 12:51:50;;;;;;;8.10;4.30;;;;;;;1.02;80.85;100533.02;2031168;86;21925;-74
2021/12/20 12:55:02;;;;;;;7.08;3.20;;;;;;;1.00;80.70;100532.27;2022976;86;21042;-73
2021/12/20 12:58:15;;;;;;;6.33;3.55;;;;;;;0.96;80.72;100536.86;2025962;86;21082;-73
2021/12/20 13:01:20;;;;;;;8.03;3.92;;;;;;;0.95;80.81;100536.47;2008229;86;21138;-74
2021/12/20 13:04:48;;;;;;;12.43;4.40;;;;;;;0.94;80.60;100537.88;2020987;86;21644;-73
2021/12/20 13:07:53;;;;;;;14.53;4.60;;;;;;;0.92;80.63;100537.96;1990130;86;21135;-73
2021/12/20 13:10:55;;;;;;;9.88;3.92;;;;;;;0.91;80.56;100549.83;2024083;86;21133;-74
2021/12/20 13:14:14;;;;;;;7.87;3.90;;;;;;;0.87;80.52;100553.94;2026143;86;21129;-73
2021/12/20 13:17:30;;;;;;;7.53;3.67;;;;;;;0.84;80.77;100548.87;2023517;86;21059;-73
2021/12/20 13:20:51;;;;;;;7.58;3.47;;;;;;;0.84;80.83;100553.27;2031642;86;21149;-73
2021/12/20 13:23:52;;;;;;;9.05;3.72;;;;;;;0.82;80.69;100557.30;2026665;86;21053;-73
2021/12/20 13:27:08;;;;;;;9.75;3.75;;;;;;;0.81;80.88;100559.98;2032392;86;21081;-73
2021/12/20 13:30:10;;;;;;;7.97;4.22;;;;;;;0.78;80.90;100553.17;2023527;86;21058;-73
2021/12/20 13:33:14;;;;;;;6.22;3.70;;;;;;;0.76;80.97;100561.59;2022262;86;21016;-73
2021/12/20 13:36:19;;;;;;;6.10;3.42;;;;;;;0.74;80.87;100554.31;2030202;86;21486;-73
2021/12/20 13:39:21;;;;;;;11.03;4.50;;;;;;;0.73;80.93;100556.53;2026484;86;21058;-73
2021/12/20 13:42:24;;;;;;;7.45;3.85;;;;;;;0.74;81.08;100559.53;2027907;86;21505;-72
2021/12/20 13:45:25;;;;;;;14.85;4.55;;;;;;;0.75;81.15;100562.98;2017604;86;21098;-73
2021/12/20 13:48:27;;;;;;;11.78;4.95;;;;;;;0.70;81.26;100559.80;2019679;86;21542;-72
2021/12/20 13:51:40;;;;;;;7.40;4.05;;;;;;;0.66;81.43;100564.38;2025467;86;21134;-71
2021/12/20 13:54:45;;;;;;;6.70;3.83;;;;;;;0.63;81.56;100561.95;2022897;86;21098;-71
2021/12/20 13:57:47;;;;;;;8.10;3.90;;;;;;;0.61;81.74;100565.95;2033822;86;21362;-72
2021/12/20 14:00:49;;;;;;;11.30;4.35;;;;;;;0.61;81.75;100568.56;2024701;86;21028;-72
2021/12/20 14:03:50;;;;;;;9.35;4.80;;;;;;;0.59;81.88;100575.67;2016929;86;21066;-74
2021/12/20 14:06:52;;;;;;;10.40;5.05;;;;;;;0.59;81.83;100579.59;2027504;86;21653;-71
2021/12/20 14:10:17;;;;;;;9.85;4.92;;;;;;;0.61;81.96;100588.63;2025892;86;21043;-72
2021/12/20 14:13:26;;;;;;;12.47;5.92;;;;;;;0.62;81.94;100583.32;2026840;86;21043;-72
2021/12/20 14:16:30;;;;;;;13.45;4.60;;;;;;;0.62;81.97;100586.37;2025737;86;21051;-72
2021/12/20 14:19:58;;;;;;;9.58;4.25;;;;;;;0.62;81.77;100602.05;2031121;86;21042;-72
2021/12/20 14:23:00;;;;;;;11.75;4.37;;;;;;;0.62;81.78;100596.81;2022609;86;21086;-72
2021/12/20 14:26:23;;;;;;;7.42;4.55;;;;;;;0.64;81.53;100597.58;2031215;86;21021;-72
2021/12/20 14:29:30;;;;;;;10.25;4.00;;;;;;;0.61;81.34;100601.68;2030843;86;21080;-72
2021/12/20 14:32:41;;;;;;;11.05;4.08;;;;;;;0.62;81.26;100603.34;2030309;86;21201;-72
2021/12/20 14:35:50;;;;;;;6.72;3.67;;;;;;;0.61;81.06;100597.77;2029911;86;21094;-72
2021/12/20 14:38:56;;;;;;;7.58;4.15;;;;;;;0.57;81.07;100606.25;2021967;85;21521;-72
2021/12/20 14:41:58;;;;;;;12.40;5.22;;;;;;;0.60;80.88;100594.31;2024945;86;21074;-72
2021/12/20 14:45:07;;;;;;;9.73;5.20;;;;;;;0.62;80.82;100604.65;2027619;86;21110;-72